Time;durP1;ratioP1;P1;durP2;ratioP2;P2;SDS_P1;SDS_P2;PMS_P1;PMS_P2;Temp;Humidity;BMP_temperature;BMP_pressure;BME280_temperature;BME280_humidity;BME280_pressure;Samples;Min_cycle;Max_cycle;Signal;HPM_P1;HPM_P2
2024/04/03 00:00:57;;;;;;;8.13;7.33;;;;;;;;;;4898793;29;20189;-82
2024/04/03 00:03:23;;;;;;;8.40;7.80;;;;;;;;;;4898650;29;20470;-82
2024/04/03 00:05:50;;;;;;;8.30;7.60;;;;;;;;;;4900007;29;20466;-81
2024/04/03 00:08:16;;;;;;;8.43;7.60;;;;;;;;;;4899891;29;20187;-82
2024/04/03 00:10:42;;;;;;;8.27;7.57;;;;;;;;;;4898605;29;20179;-82
2024/04/03 00:13:08;;;;;;;8.13;7.40;;;;;;;;;;4899585;29;20418;-82
2024/04/03 00:15:33;;;;;;;7.90;7.40;;;;;;;;;;4899854;29;20454;-82
2024/04/03 00:17:59;;;;;;;9.33;7.87;;;;;;;;;;4899647;29;20415;-82
2024/04/03 00:20:25;;;;;;;8.23;7.67;;;;;;;;;;4882663;29;20424;-82
2024/04/03 00:22:51;;;;;;;8.37;7.87;;;;;;;;;;4899499;29;20848;-82
2024/04/03 00:25:17;;;;;;;8.23;7.73;;;;;;;;;;4899706;29;20415;-82
2024/04/03 00:27:44;;;;;;;9.98;8.38;;;;;;;;;;4899454;29;20411;-81
2024/04/03 00:30:10;;;;;;;11.15;8.23;;;;;;;;;;4899236;29;20554;-82
2024/04/03 00:32:36;;;;;;;8.63;7.90;;;;;;;;;;4899679;29;20179;-82
2024/04/03 00:35:03;;;;;;;11.38;8.25;;;;;;;;;;4899489;29;20190;-81
2024/04/03 00:37:35;;;;;;;8.93;8.20;;;;;;;;;;4899624;29;20183;-81
2024/04/03 00:40:01;;;;;;;8.60;8.00;;;;;;;;;;4899352;29;20195;-82
2024/04/03 00:42:27;;;;;;;9.90;8.90;;;;;;;;;;4899125;29;20211;-82
2024/04/03 00:44:53;;;;;;;9.53;8.50;;;;;;;;;;4899240;29;20187;-82
2024/04/03 00:47:19;;;;;;;9.43;8.10;;;;;;;;;;4899315;29;20471;-82
2024/04/03 00:49:45;;;;;;;8.20;7.60;;;;;;;;;;4899359;29;20415;-82
2024/04/03 00:52:13;;;;;;;8.50;7.90;;;;;;;;;;4899178;29;20408;-82
2024/04/03 00:54:40;;;;;;;8.63;8.10;;;;;;;;;;4899563;29;20189;-82
2024/04/03 00:57:06;;;;;;;9.35;8.65;;;;;;;;;;4898881;29;20214;-82
2024/04/03 00:59:32;;;;;;;9.57;8.67;;;;;;;;;;4899256;29;20223;-82
2024/04/03 01:01:58;;;;;;;9.23;8.52;;;;;;;;;;4899110;29;20825;-82
2024/04/03 01:04:24;;;;;;;9.37;8.70;;;;;;;;;;4899357;29;20187;-82
2024/04/03 01:06:50;;;;;;;9.43;8.20;;;;;;;;;;4899011;29;20412;-82
2024/04/03 01:09:17;;;;;;;9.00;8.23;;;;;;;;;;4898830;29;20695;-82
2024/04/03 01:11:43;;;;;;;9.77;9.00;;;;;;;;;;4898859;29;20415;-83
2024/04/03 01:14:09;;;;;;;9.77;8.90;;;;;;;;;;4898882;29;20187;-83
2024/04/03 01:16:36;;;;;;;9.53;8.73;;;;;;;;;;4899089;29;20194;-83
2024/04/03 01:19:02;;;;;;;9.88;8.90;;;;;;;;;;4896581;29;20815;-83
2024/04/03 01:21:29;;;;;;;9.13;8.50;;;;;;;;;;4878849;29;20262;-83
2024/04/03 01:23:55;;;;;;;9.70;9.10;;;;;;;;;;4884135;29;20424;-82
2024/04/03 01:26:21;;;;;;;9.35;8.50;;;;;;;;;;4883582;29;20263;-83
2024/04/03 01:28:47;;;;;;;9.20;8.53;;;;;;;;;;4883850;29;20262;-82
2024/04/03 01:31:13;;;;;;;9.23;8.57;;;;;;;;;;4899088;29;20415;-82
2024/04/03 01:33:39;;;;;;;8.80;8.30;;;;;;;;;;4901399;29;20963;-82
2024/04/03 01:36:06;;;;;;;8.65;8.15;;;;;;;;;;4902572;29;20426;-82
2024/04/03 01:38:32;;;;;;;10.57;8.70;;;;;;;;;;4902600;29;20183;-82
2024/04/03 01:40:58;;;;;;;9.73;8.87;;;;;;;;;;4902230;29;20194;-82
2024/04/03 01:43:24;;;;;;;9.63;8.83;;;;;;;;;;4901963;29;20966;-82
2024/04/03 01:46:00;;;;;;;9.13;8.43;;;;;;;;;;4902495;29;20832;-82
2024/04/03 01:48:26;;;;;;;9.38;8.50;;;;;;;;;;4902284;29;20899;-82
2024/04/03 01:50:52;;;;;;;9.32;8.43;;;;;;;;;;4902478;29;20190;-82
2024/04/03 01:53:18;;;;;;;9.10;8.50;;;;;;;;;;4901095;29;20194;-82
2024/04/03 01:55:57;;;;;;;10.07;9.02;;;;;;;;;;4902003;29;20474;-82
2024/04/03 01:58:23;;;;;;;9.60;8.75;;;;;;;;;;4902176;29;20274;-82
2024/04/03 02:00:50;;;;;;;8.90;8.20;;;;;;;;;;4887583;29;20187;-81
2024/04/03 02:03:16;;;;;;;10.85;8.80;;;;;;;;;;4883805;29;20576;-82
2024/04/03 02:05:43;;;;;;;9.48;8.68;;;;;;;;;;4883303;29;20308;-81
2024/04/03 02:08:09;;;;;;;8.60;7.85;;;;;;;;;;4894920;29;20269;-87
2024/04/03 02:10:35;;;;;;;9.40;8.50;;;;;;;;;;4885751;29;20594;-82
2024/04/03 02:13:01;;;;;;;9.20;8.60;;;;;;;;;;4881771;29;20435;-81
2024/04/03 02:15:26;;;;;;;9.20;8.40;;;;;;;;;;4882644;29;20459;-82
2024/04/03 02:17:52;;;;;;;10.63;8.30;;;;;;;;;;4883463;29;20431;-81
2024/04/03 02:20:18;;;;;;;9.97;9.03;;;;;;;;;;4893362;29;20433;-82
2024/04/03 02:22:47;;;;;;;9.07;8.37;;;;;;;;;;4901886;29;20474;-82
2024/04/03 02:25:14;;;;;;;10.05;8.40;;;;;;;;;;4901653;29;20423;-82
2024/04/03 02:27:40;;;;;;;9.55;8.18;;;;;;;;;;4900548;29;20187;-81
2024/04/03 02:30:06;;;;;;;8.95;7.97;;;;;;;;;;4900978;29;20239;-81
2024/04/03 02:32:32;;;;;;;10.35;8.18;;;;;;;;;;4900741;29;20269;-81
2024/04/03 02:34:58;;;;;;;8.90;8.00;;;;;;;;;;4901550;29;20222;-81
2024/04/03 02:37:24;;;;;;;12.47;8.23;;;;;;;;;;4900261;29;20462;-81
2024/04/03 02:39:50;;;;;;;8.85;8.25;;;;;;;;;;4903928;29;20918;-81
2024/04/03 02:42:16;;;;;;;10.13;9.10;;;;;;;;;;4903002;29;20214;-82
2024/04/03 02:44:42;;;;;;;8.90;8.18;;;;;;;;;;4901569;29;20412;-81
2024/04/03 02:47:08;;;;;;;8.90;8.20;;;;;;;;;;4902023;29;20205;-81
2024/04/03 02:49:34;;;;;;;8.67;8.00;;;;;;;;;;4901377;29;20512;-81
2024/04/03 02:52:00;;;;;;;8.35;7.72;;;;;;;;;;4900025;29;20453;-81
2024/04/03 02:54:26;;;;;;;9.00;8.27;;;;;;;;;;4901321;29;20183;-81
2024/04/03 02:56:52;;;;;;;8.93;8.10;;;;;;;;;;4891909;29;20451;-81
2024/04/03 02:59:18;;;;;;;9.32;8.50;;;;;;;;;;4882554;29;20534;-81
2024/04/03 03:01:44;;;;;;;12.73;8.73;;;;;;;;;;4900564;29;20215;-81
2024/04/03 03:04:10;;;;;;;8.80;8.07;;;;;;;;;;4900067;29;20431;-81
2024/04/03 03:06:37;;;;;;;8.30;7.50;;;;;;;;;;4901335;29;21143;-81
2024/04/03 03:09:04;;;;;;;11.68;7.65;;;;;;;;;;4901014;29;20187;-81
2024/04/03 03:11:30;;;;;;;11.27;7.88;;;;;;;;;;4900517;29;20202;-81
2024/04/03 03:13:56;;;;;;;7.83;7.13;;;;;;;;;;4901163;29;20183;-81
2024/04/03 03:16:22;;;;;;;9.30;8.35;;;;;;;;;;4900872;29;20422;-81
2024/04/03 03:18:49;;;;;;;8.23;7.50;;;;;;;;;;4901150;29;20271;-82
2024/04/03 03:21:15;;;;;;;8.02;7.45;;;;;;;;;;4900635;29;20183;-82
2024/04/03 03:23:41;;;;;;;7.93;7.43;;;;;;;;;;4900922;29;20195;-82
2024/04/03 03:26:07;;;;;;;7.70;7.10;;;;;;;;;;4900738;29;20278;-82
2024/04/03 03:28:33;;;;;;;9.17;8.40;;;;;;;;;;4878442;29;20520;-82
2024/04/03 03:30:59;;;;;;;8.10;7.40;;;;;;;;;;4881034;29;20556;-81
2024/04/03 03:33:25;;;;;;;9.07;7.78;;;;;;;;;;4881410;29;20420;-82
2024/04/03 03:35:52;;;;;;;8.27;7.60;;;;;;;;;;4881682;29;20543;-81
2024/04/03 03:38:18;;;;;;;7.80;7.25;;;;;;;;;;4880762;29;20330;-82
2024/04/03 03:40:44;;;;;;;8.77;7.28;;;;;;;;;;4880521;29;20187;-83
2024/04/03 03:43:10;;;;;;;8.03;7.40;;;;;;;;;;4881611;29;20263;-82
2024/04/03 03:45:46;;;;;;;8.70;7.70;;;;;;;;;;4881129;29;20427;-81
2024/04/03 03:48:12;;;;;;;8.73;7.20;;;;;;;;;;4879977;29;20416;-81
2024/04/03 03:53:23;;;;;;;8.93;7.22;;;;;;;;;;4881416;29;20206;-82
2024/04/03 03:55:49;;;;;;;7.70;7.00;;;;;;;;;;4881706;29;20723;-81
2024/04/03 03:58:15;;;;;;;7.60;6.90;;;;;;;;;;4880621;29;20274;-82
2024/04/03 04:00:41;;;;;;;7.45;6.75;;;;;;;;;;4882106;29;20444;-83
2024/04/03 04:03:07;;;;;;;7.73;7.13;;;;;;;;;;4881110;29;20818;-82
2024/04/03 04:05:35;;;;;;;12.35;8.30;;;;;;;;;;4879690;29;20485;-83
2024/04/03 04:08:01;;;;;;;9.43;7.90;;;;;;;;;;4881229;29;20202;-82
2024/04/03 04:10:27;;;;;;;8.47;7.63;;;;;;;;;;4863937;29;20183;-83
2024/04/03 04:12:54;;;;;;;8.03;7.40;;;;;;;;;;4880176;29;20497;-82
2024/04/03 04:15:20;;;;;;;14.13;8.35;;;;;;;;;;4879296;29;20428;-82
2024/04/03 04:17:46;;;;;;;9.05;8.18;;;;;;;;;;4880976;29;20607;-82
2024/04/03 04:20:12;;;;;;;10.77;7.37;;;;;;;;;;4879726;29;20215;-82
2024/04/03 04:22:38;;;;;;;11.23;7.97;;;;;;;;;;4879401;29;20550;-82
2024/04/03 04:25:04;;;;;;;9.43;8.30;;;;;;;;;;4880957;29;20728;-81
2024/04/03 04:27:31;;;;;;;8.35;7.65;;;;;;;;;;4880806;29;20444;-82
2024/04/03 04:29:57;;;;;;;8.15;7.55;;;;;;;;;;4880670;29;20284;-82
2024/04/03 04:32:23;;;;;;;9.10;7.97;;;;;;;;;;4884288;29;20180;-84
2024/04/03 04:34:49;;;;;;;10.50;8.43;;;;;;;;;;4894356;29;20442;-81
2024/04/03 04:37:15;;;;;;;8.03;7.40;;;;;;;;;;4899449;29;21012;-82
2024/04/03 04:39:41;;;;;;;7.80;7.10;;;;;;;;;;4898957;29;20407;-81
2024/04/03 04:42:08;;;;;;;8.37;7.60;;;;;;;;;;4899310;29;20466;-82
2024/04/03 04:44:34;;;;;;;8.00;7.50;;;;;;;;;;4881995;29;20962;-81
2024/04/03 04:47:00;;;;;;;9.05;8.10;;;;;;;;;;4899324;29;20195;-81
2024/04/03 04:49:26;;;;;;;8.57;7.10;;;;;;;;;;4898125;29;20205;-80
2024/04/03 04:51:52;;;;;;;8.65;7.20;;;;;;;;;;4898214;29;20560;-80
2024/04/03 04:54:18;;;;;;;7.85;7.15;;;;;;;;;;4882375;29;20735;-81
2024/04/03 04:56:45;;;;;;;7.82;7.10;;;;;;;;;;4901318;29;20631;-81
2024/04/03 04:59:11;;;;;;;8.73;7.45;;;;;;;;;;4883472;29;20247;-81
2024/04/03 05:01:38;;;;;;;7.55;6.97;;;;;;;;;;4884528;29;20619;-81
2024/04/03 05:04:04;;;;;;;10.32;7.75;;;;;;;;;;4903385;29;20239;-82
2024/04/03 05:06:31;;;;;;;7.80;7.30;;;;;;;;;;4890872;29;20230;-81
2024/04/03 05:08:57;;;;;;;13.15;7.30;;;;;;;;;;4884397;29;20248;-81
2024/04/03 05:11:23;;;;;;;8.07;7.05;;;;;;;;;;4883704;29;20183;-82
2024/04/03 05:13:49;;;;;;;8.70;6.85;;;;;;;;;;4884569;29;20598;-82
2024/04/03 05:16:20;;;;;;;7.90;7.30;;;;;;;;;;4883348;29;20207;-81
2024/04/03 05:18:46;;;;;;;9.43;7.47;;;;;;;;;;4868429;29;20432;-82
2024/04/03 05:21:12;;;;;;;8.70;7.85;;;;;;;;;;4884210;29;20210;-81
2024/04/03 05:23:38;;;;;;;11.50;7.80;;;;;;;;;;4895946;29;20277;-82
2024/04/03 05:26:09;;;;;;;9.82;7.45;;;;;;;;;;4902862;29;20194;-82
2024/04/03 05:28:36;;;;;;;12.88;8.38;;;;;;;;;;4902422;29;20231;-82
2024/04/03 05:31:06;;;;;;;9.02;7.78;;;;;;;;;;4885648;29;20241;-82
2024/04/03 05:33:32;;;;;;;8.40;7.25;;;;;;;;;;4885873;29;20195;-82
2024/04/03 05:35:59;;;;;;;7.55;7.00;;;;;;;;;;4902605;29;20555;-82
2024/04/03 05:38:25;;;;;;;12.40;9.10;;;;;;;;;;4902214;29;20194;-83
2024/04/03 05:40:52;;;;;;;9.80;9.18;;;;;;;;;;4902260;29;20243;-83
2024/04/03 05:43:18;;;;;;;10.63;9.82;;;;;;;;;;4902125;29;20221;-83
2024/04/03 05:45:45;;;;;;;10.70;9.90;;;;;;;;;;4901834;29;20641;-83
2024/04/03 05:48:11;;;;;;;10.20;9.55;;;;;;;;;;4902081;29;20179;-83
2024/04/03 05:50:37;;;;;;;10.90;10.10;;;;;;;;;;4901743;29;20179;-83
2024/04/03 05:53:03;;;;;;;10.57;9.67;;;;;;;;;;4900666;29;20216;-84
2024/04/03 05:55:29;;;;;;;10.70;10.00;;;;;;;;;;4900759;29;20406;-85
2024/04/03 05:57:56;;;;;;;10.60;9.80;;;;;;;;;;4901060;29;20211;-84
2024/04/03 06:00:22;;;;;;;10.68;9.73;;;;;;;;;;4900281;29;20194;-84
2024/04/03 06:02:48;;;;;;;11.27;10.30;;;;;;;;;;4902019;29;20718;-84
2024/04/03 06:05:14;;;;;;;10.60;9.63;;;;;;;;;;4901989;29;20187;-84
2024/04/03 06:07:40;;;;;;;10.35;9.57;;;;;;;;;;4883659;29;20187;-85
2024/04/03 06:10:07;;;;;;;11.10;10.07;;;;;;;;;;4900811;29;20179;-84
2024/04/03 06:12:33;;;;;;;11.13;10.10;;;;;;;;;;4901678;29;20194;-84
2024/04/03 06:14:59;;;;;;;11.48;10.50;;;;;;;;;;4901700;29;20644;-84
2024/04/03 06:17:25;;;;;;;10.50;9.70;;;;;;;;;;4901736;29;20195;-84
2024/04/03 06:19:51;;;;;;;10.30;9.50;;;;;;;;;;4901945;29;20410;-83
2024/04/03 06:22:17;;;;;;;10.80;9.90;;;;;;;;;;4900392;29;20463;-83
2024/04/03 06:24:43;;;;;;;10.73;9.73;;;;;;;;;;4901434;29;20416;-84
2024/04/03 06:27:09;;;;;;;9.90;9.10;;;;;;;;;;4901355;29;20399;-84
2024/04/03 06:29:35;;;;;;;11.10;10.00;;;;;;;;;;4893929;29;20236;-84
2024/04/03 06:32:01;;;;;;;11.70;10.13;;;;;;;;;;4865913;29;20198;-84
2024/04/03 06:34:28;;;;;;;10.75;9.40;;;;;;;;;;4882268;29;20667;-84
2024/04/03 06:36:54;;;;;;;10.93;9.30;;;;;;;;;;4881400;29;20215;-84
2024/04/03 06:39:20;;;;;;;11.68;9.65;;;;;;;;;;4882706;29;20595;-84
2024/04/03 06:41:46;;;;;;;11.48;10.50;;;;;;;;;;4880650;29;20721;-84
2024/04/03 06:44:12;;;;;;;10.45;9.75;;;;;;;;;;4865866;29;20539;-84
2024/04/03 06:46:38;;;;;;;10.07;9.30;;;;;;;;;;4882207;29;20191;-84
2024/04/03 06:49:04;;;;;;;10.17;9.57;;;;;;;;;;4882677;29;20183;-84
2024/04/03 06:51:31;;;;;;;10.95;9.95;;;;;;;;;;4882108;29;20544;-85
2024/04/03 06:53:57;;;;;;;10.48;9.57;;;;;;;;;;4882822;29;20577;-84
2024/04/03 06:56:23;;;;;;;10.17;9.27;;;;;;;;;;4882529;29;20179;-84
2024/04/03 06:58:49;;;;;;;10.45;9.70;;;;;;;;;;4865258;29;20910;-84
2024/04/03 07:01:16;;;;;;;10.50;9.53;;;;;;;;;;4866295;29;20213;-84
2024/04/03 07:03:42;;;;;;;9.80;8.98;;;;;;;;;;4865663;29;20475;-85
2024/04/03 07:06:08;;;;;;;9.37;8.77;;;;;;;;;;4873685;29;20199;-85
2024/04/03 07:08:34;;;;;;;14.63;10.88;;;;;;;;;;4883376;29;20472;-84
2024/04/03 07:11:01;;;;;;;10.50;9.70;;;;;;;;;;4883158;29;20637;-85
2024/04/03 07:13:27;;;;;;;11.55;9.82;;;;;;;;;;4865636;29;20214;-91
2024/04/03 07:15:53;;;;;;;11.38;10.38;;;;;;;;;;4865484;29;20180;-86
2024/04/03 07:18:19;;;;;;;11.70;10.60;;;;;;;;;;4881638;29;20218;-86
2024/04/03 07:20:55;;;;;;;10.75;9.95;;;;;;;;;;4881722;29;20259;-84
2024/04/03 07:23:25;;;;;;;10.82;10.10;;;;;;;;;;4882348;29;20213;-85
2024/04/03 07:25:51;;;;;;;11.65;10.23;;;;;;;;;;4865427;29;20271;-85
2024/04/03 07:28:17;;;;;;;10.40;9.48;;;;;;;;;;4882372;29;20183;-84
2024/04/03 07:30:43;;;;;;;12.13;10.83;;;;;;;;;;4897674;29;20234;-85
2024/04/03 07:33:10;;;;;;;10.93;10.13;;;;;;;;;;4883942;29;20423;-86
2024/04/03 07:35:36;;;;;;;14.95;11.55;;;;;;;;;;4900602;29;20167;-86
2024/04/03 07:38:04;;;;;;;11.68;10.25;;;;;;;;;;4900564;29;20674;-86
2024/04/03 07:40:30;;;;;;;11.13;10.15;;;;;;;;;;4883524;29;20269;-86
2024/04/03 07:42:56;;;;;;;10.37;9.67;;;;;;;;;;4900982;29;20238;-85
2024/04/03 07:45:22;;;;;;;10.57;9.57;;;;;;;;;;4883955;29;20447;-85
2024/04/03 07:47:48;;;;;;;15.27;9.50;;;;;;;;;;4883719;29;20416;-84
2024/04/03 07:50:15;;;;;;;9.80;9.10;;;;;;;;;;4899539;29;20430;-85
2024/04/03 07:52:41;;;;;;;13.13;9.63;;;;;;;;;;4901047;29;20391;-86
2024/04/03 07:55:11;;;;;;;10.27;9.40;;;;;;;;;;4900749;29;20230;-85
2024/04/03 07:57:37;;;;;;;10.13;9.20;;;;;;;;;;4900284;29;20211;-83
2024/04/03 08:00:05;;;;;;;9.35;8.85;;;;;;;;;;4883346;29;20242;-85
2024/04/03 08:02:35;;;;;;;10.98;10.18;;;;;;;;;;4867727;29;20560;-86
2024/04/03 08:05:01;;;;;;;11.93;11.02;;;;;;;;;;4900435;29;20175;-84
2024/04/03 08:07:28;;;;;;;11.20;10.07;;;;;;;;;;4900199;29;20536;-83
2024/04/03 08:09:54;;;;;;;11.57;10.52;;;;;;;;;;4883273;29;20647;-83
2024/04/03 08:12:20;;;;;;;11.47;10.47;;;;;;;;;;4878846;29;20198;-84
2024/04/03 08:14:46;;;;;;;10.90;10.20;;;;;;;;;;4882294;29;20436;-87
2024/04/03 08:17:12;;;;;;;10.00;9.20;;;;;;;;;;4882186;29;20187;-88
2024/04/03 08:19:38;;;;;;;9.43;8.87;;;;;;;;;;4881368;29;20934;-87
2024/04/03 08:22:05;;;;;;;9.47;8.63;;;;;;;;;;4892893;29;20469;-87
2024/04/03 08:24:33;;;;;;;8.80;8.30;;;;;;;;;;4900220;29;20415;-82
2024/04/03 08:26:59;;;;;;;8.70;8.10;;;;;;;;;;4883461;29;20214;-87
2024/04/03 08:29:25;;;;;;;9.53;8.83;;;;;;;;;;4891921;29;20569;-86
2024/04/03 08:31:51;;;;;;;9.50;8.80;;;;;;;;;;4881049;29;20420;-86
2024/04/03 08:34:18;;;;;;;10.40;9.80;;;;;;;;;;4881484;29;20191;-86
2024/04/03 08:36:44;;;;;;;10.20;9.70;;;;;;;;;;4881102;29;20467;-87
2024/04/03 08:39:10;;;;;;;10.67;10.03;;;;;;;;;;4882010;29;20175;-86
2024/04/03 08:41:36;;;;;;;10.43;9.63;;;;;;;;;;4887731;29;20450;-85
2024/04/03 08:44:02;;;;;;;9.13;8.63;;;;;;;;;;4899766;29;20639;-86
2024/04/03 08:46:31;;;;;;;9.13;8.43;;;;;;;;;;4900162;29;20420;-82
2024/04/03 08:48:57;;;;;;;8.40;7.90;;;;;;;;;;4899782;29;20214;-81
2024/04/03 08:51:26;;;;;;;8.50;7.90;;;;;;;;;;4899952;29;20211;-82
2024/04/03 08:53:59;;;;;;;9.45;8.85;;;;;;;;;;4899707;29;20183;-81
2024/04/03 08:56:25;;;;;;;8.40;8.00;;;;;;;;;;4900041;29;20178;-82
2024/04/03 08:58:51;;;;;;;8.30;7.80;;;;;;;;;;4899294;29;20270;-81
2024/04/03 09:01:17;;;;;;;8.37;7.97;;;;;;;;;;4883374;29;20203;-81
2024/04/03 09:03:44;;;;;;;8.35;7.93;;;;;;;;;;4898930;29;20483;-81
2024/04/03 09:06:11;;;;;;;8.82;8.43;;;;;;;;;;4899952;29;20201;-81
2024/04/03 09:08:41;;;;;;;8.77;8.38;;;;;;;;;;4883235;29;20175;-81
2024/04/03 09:11:07;;;;;;;8.52;8.13;;;;;;;;;;4899317;29;20550;-81
2024/04/03 09:13:33;;;;;;;9.52;8.80;;;;;;;;;;4899368;29;20256;-81
2024/04/03 09:16:01;;;;;;;9.00;8.60;;;;;;;;;;4899379;29;20687;-82
2024/04/03 09:18:27;;;;;;;9.20;8.60;;;;;;;;;;4899294;29;20422;-81
2024/04/03 09:20:54;;;;;;;9.00;8.60;;;;;;;;;;4898830;29;20179;-82
2024/04/03 09:23:20;;;;;;;8.70;8.10;;;;;;;;;;4882274;29;20234;-80
2024/04/03 09:25:46;;;;;;;8.03;7.70;;;;;;;;;;4898816;29;20239;-82
2024/04/03 09:28:13;;;;;;;8.50;8.10;;;;;;;;;;4899224;29;20415;-81
2024/04/03 09:30:40;;;;;;;8.23;7.78;;;;;;;;;;4899111;29;20463;-83
2024/04/03 09:33:07;;;;;;;8.20;7.90;;;;;;;;;;4899156;29;20175;-82
2024/04/03 09:35:38;;;;;;;8.80;8.40;;;;;;;;;;4899068;29;20175;-82
2024/04/03 09:38:04;;;;;;;9.23;8.73;;;;;;;;;;4898834;29;20285;-82
2024/04/03 09:40:31;;;;;;;8.60;8.23;;;;;;;;;;4899083;29;20327;-82
2024/04/03 09:42:58;;;;;;;8.25;7.75;;;;;;;;;;4899431;29;20966;-82
2024/04/03 09:45:25;;;;;;;8.30;7.90;;;;;;;;;;4902686;29;20187;-83
2024/04/03 09:47:56;;;;;;;9.00;8.60;;;;;;;;;;4885175;29;20214;-82
2024/04/03 09:50:22;;;;;;;9.05;8.65;;;;;;;;;;4902731;29;20176;-82
2024/04/03 09:52:50;;;;;;;8.60;8.30;;;;;;;;;;4901967;29;20270;-81
2024/04/03 09:55:17;;;;;;;8.50;8.20;;;;;;;;;;4902449;29;20319;-83
2024/04/03 09:57:43;;;;;;;8.47;8.00;;;;;;;;;;4902015;29;20505;-84
2024/04/03 10:00:10;;;;;;;8.90;8.40;;;;;;;;;;4901574;29;20513;-83
2024/04/03 10:02:47;;;;;;;8.50;8.20;;;;;;;;;;4902483;29;20828;-82
2024/04/03 10:05:13;;;;;;;8.65;8.35;;;;;;;;;;4902277;29;20182;-83
2024/04/03 10:07:39;;;;;;;8.60;8.20;;;;;;;;;;4901989;29;20190;-82
2024/04/03 10:10:05;;;;;;;8.93;8.43;;;;;;;;;;4902451;29;20411;-81
2024/04/03 10:12:31;;;;;;;8.70;8.30;;;;;;;;;;4902919;29;20182;-82
2024/04/03 10:14:57;;;;;;;9.20;8.80;;;;;;;;;;4902216;29;20963;-82
2024/04/03 10:17:23;;;;;;;9.30;8.80;;;;;;;;;;4902185;29;20431;-82
2024/04/03 10:19:58;;;;;;;8.80;8.40;;;;;;;;;;4898354;29;20439;-82
2024/04/03 10:22:28;;;;;;;7.43;7.03;;;;;;;;;;4895060;29;20499;-82
2024/04/03 10:24:54;;;;;;;7.30;7.00;;;;;;;;;;4902797;29;20422;-80
2024/04/03 10:27:20;;;;;;;7.50;7.20;;;;;;;;;;4891928;29;20440;-80
2024/04/03 10:29:46;;;;;;;7.30;6.80;;;;;;;;;;4883265;29;20937;-81
2024/04/03 10:32:15;;;;;;;7.37;6.80;;;;;;;;;;4882921;29;20420;-82
2024/04/03 10:34:41;;;;;;;7.18;6.88;;;;;;;;;;4866441;29;20409;-82
2024/04/03 10:37:10;;;;;;;7.00;6.70;;;;;;;;;;4882558;29;20278;-82
2024/04/03 10:39:36;;;;;;;6.95;6.65;;;;;;;;;;4867640;29;20910;-81
2024/04/03 10:42:04;;;;;;;7.40;7.00;;;;;;;;;;4863999;29;20220;-81
2024/04/03 10:44:30;;;;;;;6.93;6.72;;;;;;;;;;4867949;29;20434;-82
2024/04/03 10:47:07;;;;;;;7.10;6.70;;;;;;;;;;4866729;29;20211;-82
2024/04/03 10:49:33;;;;;;;7.10;6.80;;;;;;;;;;4864064;29;20604;-82
2024/04/03 10:51:59;;;;;;;7.20;6.80;;;;;;;;;;4866989;29;20430;-82
2024/04/03 10:54:26;;;;;;;7.20;6.90;;;;;;;;;;4882316;29;20900;-83
2024/04/03 10:56:52;;;;;;;7.40;7.00;;;;;;;;;;4880707;29;20420;-82
2024/04/03 10:59:18;;;;;;;7.20;6.90;;;;;;;;;;4880526;29;20443;-83
2024/04/03 11:01:44;;;;;;;6.60;6.40;;;;;;;;;;4882113;29;20897;-84
2024/04/03 11:04:11;;;;;;;6.85;6.53;;;;;;;;;;4882196;29;20420;-82
2024/04/03 11:06:40;;;;;;;7.07;6.60;;;;;;;;;;4882380;29;20248;-82
2024/04/03 11:09:07;;;;;;;6.50;6.20;;;;;;;;;;4882529;29;20261;-82
2024/04/03 11:11:33;;;;;;;6.40;6.20;;;;;;;;;;4866058;29;20179;-82
2024/04/03 11:13:59;;;;;;;6.95;6.65;;;;;;;;;;4882081;29;20327;-82
2024/04/03 11:16:25;;;;;;;6.67;6.33;;;;;;;;;;4875100;29;20247;-83
2024/04/03 11:18:51;;;;;;;6.47;6.20;;;;;;;;;;4871317;29;20427;-82
2024/04/03 11:21:17;;;;;;;6.40;6.20;;;;;;;;;;4893775;29;20409;-83
2024/04/03 11:23:43;;;;;;;6.60;6.40;;;;;;;;;;4881746;29;20550;-85
2024/04/03 11:26:09;;;;;;;6.10;5.90;;;;;;;;;;4882311;29;20420;-83
2024/04/03 11:28:35;;;;;;;6.40;6.20;;;;;;;;;;4877410;29;20467;-83
2024/04/03 11:31:01;;;;;;;6.20;6.00;;;;;;;;;;4881620;29;21010;-84
2024/04/03 11:33:31;;;;;;;5.80;5.60;;;;;;;;;;4880014;29;20416;-82
2024/04/03 11:35:57;;;;;;;6.10;5.90;;;;;;;;;;4883709;29;20897;-82
2024/04/03 11:38:25;;;;;;;6.10;5.90;;;;;;;;;;4892118;29;20176;-83
2024/04/03 11:40:51;;;;;;;5.60;5.40;;;;;;;;;;4880161;29;20941;-83
2024/04/03 11:43:17;;;;;;;5.80;5.50;;;;;;;;;;4863412;29;20557;-83
2024/04/03 11:45:43;;;;;;;5.80;5.60;;;;;;;;;;4865007;29;20453;-82
2024/04/03 11:48:09;;;;;;;6.10;5.90;;;;;;;;;;4884435;29;20412;-82
2024/04/03 11:50:35;;;;;;;6.63;6.43;;;;;;;;;;4881960;29;20219;-82
2024/04/03 11:53:01;;;;;;;6.13;5.93;;;;;;;;;;4865789;29;20515;-83
2024/04/03 11:55:27;;;;;;;5.80;5.60;;;;;;;;;;4863308;29;20945;-83
2024/04/03 11:57:53;;;;;;;6.00;5.60;;;;;;;;;;4872760;29;20428;-83
2024/04/03 12:00:19;;;;;;;5.50;5.30;;;;;;;;;;4881996;29;20465;-83
2024/04/03 12:02:45;;;;;;;5.80;5.60;;;;;;;;;;4881546;29;20471;-85
2024/04/03 12:05:11;;;;;;;5.50;5.30;;;;;;;;;;4879403;29;20791;-83
2024/04/03 12:07:37;;;;;;;5.83;5.63;;;;;;;;;;4864571;29;20533;-83
2024/04/03 12:10:10;;;;;;;5.63;5.33;;;;;;;;;;4881142;29;20988;-83
2024/04/03 12:12:37;;;;;;;5.80;5.60;;;;;;;;;;4878826;29;20427;-82
2024/04/03 12:15:04;;;;;;;5.47;5.23;;;;;;;;;;4881060;29;20443;-83
2024/04/03 12:17:31;;;;;;;5.90;5.70;;;;;;;;;;4881317;29;20511;-82
2024/04/03 12:22:23;;;;;;;5.40;5.20;;;;;;;;;;4881394;29;20459;-85
2024/04/03 12:24:50;;;;;;;5.17;4.90;;;;;;;;;;4880878;29;20421;-84
2024/04/03 12:27:16;;;;;;;5.60;5.30;;;;;;;;;;4870200;29;20448;-83
2024/04/03 12:29:42;;;;;;;5.30;5.10;;;;;;;;;;4862182;29;20880;-85
2024/04/03 12:32:08;;;;;;;5.20;5.00;;;;;;;;;;4861777;29;20470;-85
2024/04/03 12:34:34;;;;;;;4.93;4.73;;;;;;;;;;4861562;29;20448;-83
2024/04/03 12:37:00;;;;;;;5.00;4.80;;;;;;;;;;4861518;29;20423;-84
2024/04/03 12:39:26;;;;;;;4.90;4.70;;;;;;;;;;4866730;29;20426;-83
2024/04/03 12:41:52;;;;;;;5.10;4.90;;;;;;;;;;4872734;29;20507;-84
2024/04/03 12:44:18;;;;;;;5.30;5.10;;;;;;;;;;4881048;29;20419;-83
2024/04/03 12:46:44;;;;;;;5.40;5.10;;;;;;;;;;4863567;29;20525;-83
2024/04/03 12:49:10;;;;;;;4.80;4.60;;;;;;;;;;4862149;29;20455;-84
2024/04/03 12:51:35;;;;;;;5.10;4.90;;;;;;;;;;4861910;29;20477;-84
2024/04/03 12:54:01;;;;;;;5.33;5.13;;;;;;;;;;4864764;29;20593;-84
2024/04/03 12:56:27;;;;;;;5.60;5.40;;;;;;;;;;4861649;29;20435;-83
2024/04/03 12:58:55;;;;;;;5.10;4.90;;;;;;;;;;4862805;29;20949;-84
2024/04/03 13:01:21;;;;;;;5.37;5.17;;;;;;;;;;4860654;29;20435;-86
2024/04/03 13:03:47;;;;;;;5.20;5.00;;;;;;;;;;4861578;29;20489;-84
2024/04/03 13:06:13;;;;;;;5.10;4.90;;;;;;;;;;4861440;29;20420;-84
2024/04/03 13:08:39;;;;;;;4.80;4.60;;;;;;;;;;4860757;29;20505;-86
2024/04/03 13:11:06;;;;;;;4.90;4.70;;;;;;;;;;4874423;29;20421;-86
2024/04/03 13:13:33;;;;;;;4.90;4.60;;;;;;;;;;4879902;29;20424;-84
2024/04/03 13:16:02;;;;;;;4.80;4.60;;;;;;;;;;4879359;29;20838;-87
2024/04/03 13:18:28;;;;;;;5.27;5.07;;;;;;;;;;4882910;29;20451;-86
2024/04/03 13:20:57;;;;;;;4.70;4.50;;;;;;;;;;4883733;29;20477;-86
2024/04/03 13:23:23;;;;;;;4.90;4.70;;;;;;;;;;4884074;29;20467;-84
2024/04/03 13:25:51;;;;;;;4.90;4.70;;;;;;;;;;4872459;29;20461;-84
2024/04/03 13:28:17;;;;;;;5.00;4.80;;;;;;;;;;4885160;29;20408;-84
2024/04/03 13:30:43;;;;;;;4.90;4.70;;;;;;;;;;4888608;29;20482;-85
2024/04/03 13:33:09;;;;;;;5.10;4.90;;;;;;;;;;4884195;29;20517;-85
2024/04/03 13:35:35;;;;;;;5.10;4.90;;;;;;;;;;4867417;29;20412;-86
2024/04/03 13:38:01;;;;;;;6.03;5.73;;;;;;;;;;4884153;29;20455;-85
2024/04/03 13:40:27;;;;;;;5.13;4.93;;;;;;;;;;4884257;29;20419;-85
2024/04/03 13:42:53;;;;;;;5.07;4.87;;;;;;;;;;4885895;29;20558;-84
2024/04/03 13:45:19;;;;;;;5.00;4.70;;;;;;;;;;4891256;29;20514;-84
2024/04/03 13:47:45;;;;;;;5.10;4.90;;;;;;;;;;4867087;29;20421;-86
2024/04/03 13:50:12;;;;;;;4.70;4.50;;;;;;;;;;4886676;29;20487;-86
2024/04/03 13:52:40;;;;;;;5.00;4.80;;;;;;;;;;4902549;29;20419;-86
2024/04/03 13:55:06;;;;;;;5.30;5.03;;;;;;;;;;4902104;29;20474;-86
2024/04/03 13:57:32;;;;;;;4.80;4.60;;;;;;;;;;4902472;29;20915;-87
2024/04/03 13:59:58;;;;;;;4.80;4.60;;;;;;;;;;4901905;29;20466;-86
2024/04/03 14:02:24;;;;;;;4.67;4.47;;;;;;;;;;4902231;29;20800;-85
2024/04/03 14:04:51;;;;;;;4.83;4.63;;;;;;;;;;4902022;29;20437;-85
2024/04/03 14:07:17;;;;;;;4.70;4.50;;;;;;;;;;4902381;29;20892;-85
2024/04/03 14:09:43;;;;;;;4.50;4.30;;;;;;;;;;4902416;29;20781;-86
2024/04/03 14:12:09;;;;;;;4.60;4.40;;;;;;;;;;4895373;29;20420;-86
2024/04/03 14:14:36;;;;;;;4.80;4.60;;;;;;;;;;4897475;29;20416;-85
2024/04/03 14:17:03;;;;;;;4.73;4.53;;;;;;;;;;4902201;29;20912;-86
2024/04/03 14:19:31;;;;;;;4.70;4.50;;;;;;;;;;4885871;29;20411;-85
2024/04/03 14:21:56;;;;;;;5.40;4.97;;;;;;;;;;4902103;29;20467;-85
2024/04/03 14:24:22;;;;;;;4.67;4.47;;;;;;;;;;4903334;29;21008;-84
2024/04/03 14:26:48;;;;;;;4.57;4.37;;;;;;;;;;4901867;29;20419;-86
2024/04/03 14:29:14;;;;;;;4.50;4.30;;;;;;;;;;4901312;29;20481;-86
2024/04/03 14:31:42;;;;;;;4.20;4.10;;;;;;;;;;4899972;29;20415;-84
2024/04/03 14:34:08;;;;;;;4.47;4.30;;;;;;;;;;4890643;29;20506;-84
2024/04/03 14:36:34;;;;;;;4.20;4.10;;;;;;;;;;4908011;29;20440;-82
2024/04/03 14:39:00;;;;;;;3.90;3.80;;;;;;;;;;4913572;29;20514;-85